Time;durP1;ratioP1;P1;durP2;ratioP2;P2;SDS_P1;SDS_P2;PMS_P1;PMS_P2;Temp;Humidity;BMP_temperature;BMP_pressure;BME280_temperature;BME280_humidity;BME280_pressure;Samples;Min_cycle;Max_cycle;Signal;HPM_P1;HPM_P2
2022/06/23 00:02:16;;;;;;;12.07;3.60;;;;;;;;;;5020918;28;20241;-59
2022/06/23 00:04:46;;;;;;;11.77;3.60;;;;;;;;;;5020800;28;20317;-59
2022/06/23 00:07:15;;;;;;;9.30;3.93;;;;;;;;;;5020969;28;20628;-61
2022/06/23 00:09:47;;;;;;;10.57;4.20;;;;;;;;;;5020965;28;20243;-59
2022/06/23 00:12:27;;;;;;;10.87;3.90;;;;;;;;;;5020590;28;20722;-60
2022/06/23 00:15:12;;;;;;;11.73;4.47;;;;;;;;;;5020489;28;20238;-61
2022/06/23 00:17:42;;;;;;;15.70;3.70;;;;;;;;;;5018612;28;20239;-59
2022/06/23 00:20:12;;;;;;;12.10;4.00;;;;;;;;;;5001285;28;20208;-59
2022/06/23 00:22:42;;;;;;;12.93;4.10;;;;;;;;;;5001617;28;20239;-59
2022/06/23 00:25:28;;;;;;;11.80;3.60;;;;;;;;;;5019456;28;20239;-59
2022/06/23 00:27:56;;;;;;;13.40;3.97;;;;;;;;;;5000973;28;20331;-59
2022/06/23 00:30:27;;;;;;;11.40;4.30;;;;;;;;;;5000980;28;20242;-59
2022/06/23 00:32:55;;;;;;;15.17;3.87;;;;;;;;;;5000938;28;20215;-59
2022/06/23 00:35:23;;;;;;;8.33;3.83;;;;;;;;;;5003275;28;20272;-59
2022/06/23 00:37:52;;;;;;;14.43;4.50;;;;;;;;;;5001059;28;20236;-59
2022/06/23 00:40:22;;;;;;;11.33;4.20;;;;;;;;;;5000553;28;20438;-59
2022/06/23 00:42:51;;;;;;;11.87;3.73;;;;;;;;;;5000490;28;20267;-59
2022/06/23 00:45:23;;;;;;;14.43;4.00;;;;;;;;;;5003455;28;20236;-59
2022/06/23 00:47:56;;;;;;;12.23;3.93;;;;;;;;;;5000521;28;20205;-59
2022/06/23 00:50:27;;;;;;;11.70;4.23;;;;;;;;;;5000242;28;20660;-59
2022/06/23 00:52:58;;;;;;;5.00;3.40;;;;;;;;;;5000750;28;20215;-59
2022/06/23 00:55:31;;;;;;;10.70;4.07;;;;;;;;;;5000341;28;20590;-59
2022/06/23 00:58:02;;;;;;;10.57;3.40;;;;;;;;;;4999944;28;20245;-59
2022/06/23 01:00:32;;;;;;;9.70;3.50;;;;;;;;;;5000318;28;20680;-60
2022/06/23 01:03:04;;;;;;;9.97;3.20;;;;;;;;;;5000371;28;20229;-59
2022/06/23 01:05:33;;;;;;;7.23;2.70;;;;;;;;;;5000422;28;20239;-59
2022/06/23 01:08:04;;;;;;;9.70;3.27;;;;;;;;;;5000100;28;20677;-59
2022/06/23 01:10:36;;;;;;;10.10;4.60;;;;;;;;;;4999883;28;20243;-59
2022/06/23 01:13:06;;;;;;;8.97;3.30;;;;;;;;;;4999702;28;20236;-59
2022/06/23 01:15:37;;;;;;;10.93;3.40;;;;;;;;;;5000005;28;20669;-59
2022/06/23 01:18:08;;;;;;;13.00;3.63;;;;;;;;;;5013535;28;20204;-59
2022/06/23 01:20:40;;;;;;;8.57;3.67;;;;;;;;;;5000253;28;20212;-59
2022/06/23 01:23:19;;;;;;;13.67;3.77;;;;;;;;;;5011092;28;20266;-59
2022/06/23 01:25:56;;;;;;;7.27;2.93;;;;;;;;;;5008470;28;20205;-59
2022/06/23 01:28:26;;;;;;;12.53;3.10;;;;;;;;;;4999969;28;20209;-59
2022/06/23 01:30:57;;;;;;;7.53;3.07;;;;;;;;;;4999991;28;20239;-59
2022/06/23 01:33:27;;;;;;;12.93;2.80;;;;;;;;;;4999945;28;20225;-59
2022/06/23 01:35:58;;;;;;;12.97;3.20;;;;;;;;;;5012777;28;20261;-59
2022/06/23 01:38:30;;;;;;;11.97;3.13;;;;;;;;;;4999627;28;20657;-59
2022/06/23 01:41:00;;;;;;;8.47;3.20;;;;;;;;;;5006897;28;20232;-59
2022/06/23 01:43:35;;;;;;;10.17;3.10;;;;;;;;;;5017514;28;20286;-59
2022/06/23 01:46:07;;;;;;;11.60;3.30;;;;;;;;;;4999451;28;20228;-59
2022/06/23 01:48:52;;;;;;;12.07;3.17;;;;;;;;;;4999317;28;20247;-59
2022/06/23 01:51:23;;;;;;;9.23;3.07;;;;;;;;;;4999661;28;20204;-59
2022/06/23 01:53:52;;;;;;;15.20;3.87;;;;;;;;;;5006149;28;20255;-59
2022/06/23 01:56:26;;;;;;;12.23;3.83;;;;;;;;;;5018578;28;20208;-59
2022/06/23 01:58:58;;;;;;;9.07;3.90;;;;;;;;;;5018571;28;20207;-59
2022/06/23 02:01:30;;;;;;;14.90;4.67;;;;;;;;;;5018748;28;20216;-59
2022/06/23 02:04:02;;;;;;;8.23;4.00;;;;;;;;;;5018912;28;20228;-59
2022/06/23 02:06:32;;;;;;;15.73;4.43;;;;;;;;;;5018523;28;20212;-59
2022/06/23 02:09:05;;;;;;;9.53;3.60;;;;;;;;;;5018886;28;20204;-59
2022/06/23 02:11:36;;;;;;;9.47;2.70;;;;;;;;;;5018476;28;20239;-59
2022/06/23 02:14:11;;;;;;;10.87;3.40;;;;;;;;;;5018361;28;20256;-59
2022/06/23 02:16:41;;;;;;;8.90;3.47;;;;;;;;;;5018694;28;20258;-59
2022/06/23 02:19:12;;;;;;;10.13;3.20;;;;;;;;;;5004070;28;20212;-59
2022/06/23 02:21:44;;;;;;;12.43;3.37;;;;;;;;;;4999233;28;20213;-59
2022/06/23 02:24:15;;;;;;;5.83;2.63;;;;;;;;;;5018022;28;20272;-59
2022/06/23 02:26:53;;;;;;;6.80;2.53;;;;;;;;;;4998676;28;20239;-59
2022/06/23 02:29:24;;;;;;;7.97;3.00;;;;;;;;;;4998609;28;20212;-59
2022/06/23 02:31:54;;;;;;;9.00;3.30;;;;;;;;;;4999000;28;20236;-59
2022/06/23 02:34:27;;;;;;;5.03;2.50;;;;;;;;;;5000109;28;20274;-59
2022/06/23 02:36:57;;;;;;;6.13;2.67;;;;;;;;;;4998799;28;20209;-59
2022/06/23 02:39:27;;;;;;;10.20;3.33;;;;;;;;;;4998638;28;20623;-59
2022/06/23 02:41:56;;;;;;;6.47;2.57;;;;;;;;;;4998456;28;20579;-59
2022/06/23 02:44:42;;;;;;;9.20;2.50;;;;;;;;;;5000582;28;20256;-59
2022/06/23 02:47:21;;;;;;;6.47;2.40;;;;;;;;;;4998388;28;20618;-59
2022/06/23 02:49:56;;;;;;;5.27;2.10;;;;;;;;;;4998372;28;20300;-59
2022/06/23 02:52:49;;;;;;;9.70;2.57;;;;;;;;;;4998558;28;20215;-59
2022/06/23 02:55:28;;;;;;;10.73;2.67;;;;;;;;;;4998021;28;20716;-59
2022/06/23 02:57:59;;;;;;;4.67;1.90;;;;;;;;;;4997836;28;20275;-59
2022/06/23 03:00:32;;;;;;;4.10;2.13;;;;;;;;;;4998489;28;20212;-59
2022/06/23 03:03:04;;;;;;;6.43;2.03;;;;;;;;;;4998347;28;20256;-59
2022/06/23 03:05:38;;;;;;;10.47;3.03;;;;;;;;;;4998345;28;20205;-59
2022/06/23 03:08:11;;;;;;;5.90;2.30;;;;;;;;;;4997958;28;20642;-59
2022/06/23 03:10:42;;;;;;;3.90;1.93;;;;;;;;;;4998309;28;20247;-59
2022/06/23 03:13:13;;;;;;;8.97;2.80;;;;;;;;;;4997759;28;20283;-59
2022/06/23 03:15:48;;;;;;;7.37;2.20;;;;;;;;;;4998335;28;20264;-59
2022/06/23 03:18:19;;;;;;;10.13;2.37;;;;;;;;;;4998469;28;20204;-59
2022/06/23 03:20:50;;;;;;;7.40;2.07;;;;;;;;;;4998155;28;20659;-59
2022/06/23 03:23:22;;;;;;;5.77;2.10;;;;;;;;;;5008715;28;20263;-59
2022/06/23 03:25:53;;;;;;;5.37;2.20;;;;;;;;;;5004965;28;20267;-59
2022/06/23 03:28:24;;;;;;;8.53;2.13;;;;;;;;;;4997722;28;20215;-59
2022/06/23 03:30:58;;;;;;;10.20;2.10;;;;;;;;;;4998143;28;20212;-59
2022/06/23 03:33:30;;;;;;;10.50;2.80;;;;;;;;;;4997899;28;20232;-59
2022/06/23 03:36:02;;;;;;;3.93;1.87;;;;;;;;;;5000448;28;20232;-59
2022/06/23 03:41:40;;;;;;;6.30;2.00;;;;;;;;;;5001815;28;20244;-59
2022/06/23 03:44:15;;;;;;;4.93;1.93;;;;;;;;;;5004766;28;20275;-59
2022/06/23 03:46:48;;;;;;;5.27;1.70;;;;;;;;;;5001596;28;20204;-59
2022/06/23 03:49:20;;;;;;;7.70;2.33;;;;;;;;;;5001848;28;20245;-59
2022/06/23 03:51:51;;;;;;;6.57;2.00;;;;;;;;;;5001662;28;20646;-59
2022/06/23 03:54:21;;;;;;;4.70;2.03;;;;;;;;;;5001959;28;20276;-59
2022/06/23 03:56:51;;;;;;;7.07;2.13;;;;;;;;;;5001137;28;20714;-59
2022/06/23 03:59:22;;;;;;;4.87;2.43;;;;;;;;;;5001149;28;20734;-59
2022/06/23 04:01:53;;;;;;;10.47;2.50;;;;;;;;;;5001396;28;20241;-59
2022/06/23 04:04:23;;;;;;;4.30;1.53;;;;;;;;;;5001506;28;20232;-59
2022/06/23 04:06:52;;;;;;;4.93;1.77;;;;;;;;;;5008297;28;20232;-59
2022/06/23 04:09:22;;;;;;;3.40;2.07;;;;;;;;;;5021087;28;20212;-59
2022/06/23 04:12:03;;;;;;;5.87;2.30;;;;;;;;;;5021168;28;20216;-59
2022/06/23 04:14:39;;;;;;;4.30;2.20;;;;;;;;;;5020622;28;20228;-59
2022/06/23 04:17:14;;;;;;;4.57;1.30;;;;;;;;;;5020852;28;20224;-59
2022/06/23 04:19:44;;;;;;;5.27;2.00;;;;;;;;;;5001650;28;20214;-59
2022/06/23 04:22:16;;;;;;;3.20;2.00;;;;;;;;;;5001159;28;20248;-59
2022/06/23 04:24:45;;;;;;;7.67;1.90;;;;;;;;;;5020284;28;20265;-59
2022/06/23 04:27:17;;;;;;;6.00;1.87;;;;;;;;;;5000896;28;20238;-59
2022/06/23 04:29:45;;;;;;;4.73;1.83;;;;;;;;;;5000885;28;20624;-59
2022/06/23 04:32:17;;;;;;;6.03;1.80;;;;;;;;;;5001112;28;20214;-59
2022/06/23 04:34:48;;;;;;;5.73;1.70;;;;;;;;;;5001490;28;20231;-59
2022/06/23 04:37:21;;;;;;;6.97;1.90;;;;;;;;;;5000866;28;20260;-59
2022/06/23 04:39:54;;;;;;;4.77;1.70;;;;;;;;;;5000545;28;20231;-59
2022/06/23 04:42:23;;;;;;;7.70;2.10;;;;;;;;;;5000542;28;20212;-59
2022/06/23 04:44:53;;;;;;;9.57;1.50;;;;;;;;;;5002443;28;20241;-59
2022/06/23 04:47:24;;;;;;;6.97;1.90;;;;;;;;;;5000163;28;20214;-59
2022/06/23 04:49:54;;;;;;;4.00;1.70;;;;;;;;;;5000688;28;20205;-59
2022/06/23 04:52:25;;;;;;;6.77;1.80;;;;;;;;;;5000493;28;20658;-59
2022/06/23 04:54:56;;;;;;;5.03;1.57;;;;;;;;;;5000359;28;20703;-59
2022/06/23 04:57:27;;;;;;;6.20;2.10;;;;;;;;;;4999975;28;20297;-60
2022/06/23 04:59:56;;;;;;;5.53;1.97;;;;;;;;;;5000568;28;20261;-59
2022/06/23 05:02:29;;;;;;;5.93;2.17;;;;;;;;;;5000260;28;20210;-59
2022/06/23 05:05:03;;;;;;;7.57;2.20;;;;;;;;;;5000396;28;20227;-59
2022/06/23 05:07:32;;;;;;;5.33;2.07;;;;;;;;;;5000088;28;20209;-59
2022/06/23 05:10:01;;;;;;;5.67;2.20;;;;;;;;;;5000316;28;20801;-59
2022/06/23 05:12:33;;;;;;;3.83;1.57;;;;;;;;;;4999839;28;20733;-59
2022/06/23 05:15:05;;;;;;;4.00;2.00;;;;;;;;;;5000042;28;20227;-59
2022/06/23 05:17:36;;;;;;;4.90;2.20;;;;;;;;;;5013078;28;20283;-59
2022/06/23 05:20:06;;;;;;;5.73;2.10;;;;;;;;;;5000322;28;20209;-59
2022/06/23 05:22:35;;;;;;;6.47;1.80;;;;;;;;;;4999925;28;20212;-59
2022/06/23 05:25:11;;;;;;;4.90;1.77;;;;;;;;;;5020442;28;20262;-60
2022/06/23 05:27:39;;;;;;;5.67;2.03;;;;;;;;;;4999559;28;20231;-59
2022/06/23 05:30:11;;;;;;;7.13;1.53;;;;;;;;;;4999633;28;20239;-60
2022/06/23 05:32:43;;;;;;;6.03;1.97;;;;;;;;;;4999626;28;20240;-61
2022/06/23 05:35:16;;;;;;;4.80;2.00;;;;;;;;;;5001967;28;20710;-61
2022/06/23 05:37:46;;;;;;;3.57;1.87;;;;;;;;;;5006783;28;20232;-61
2022/06/23 05:40:21;;;;;;;10.07;2.67;;;;;;;;;;5019068;28;20219;-61
2022/06/23 05:42:51;;;;;;;3.97;1.73;;;;;;;;;;5018732;28;20690;-61
2022/06/23 05:45:21;;;;;;;6.20;3.03;;;;;;;;;;5003552;28;20213;-61
2022/06/23 05:47:51;;;;;;;8.47;2.33;;;;;;;;;;4999572;28;20245;-61
2022/06/23 05:50:24;;;;;;;9.03;2.47;;;;;;;;;;4999398;28;20248;-61
2022/06/23 05:52:55;;;;;;;8.80;2.90;;;;;;;;;;4999286;28;20209;-61
2022/06/23 05:55:28;;;;;;;7.87;2.83;;;;;;;;;;4999052;28;20695;-61
2022/06/23 05:57:58;;;;;;;10.33;2.40;;;;;;;;;;4997943;28;20311;-61
2022/06/23 06:00:29;;;;;;;9.10;2.97;;;;;;;;;;4999394;28;20213;-61
2022/06/23 06:03:01;;;;;;;6.57;2.57;;;;;;;;;;4999365;28;20214;-61
2022/06/23 06:05:32;;;;;;;5.37;2.90;;;;;;;;;;4999169;28;20233;-61
2022/06/23 06:08:01;;;;;;;10.47;3.70;;;;;;;;;;4998992;28;20213;-61
2022/06/23 06:10:30;;;;;;;9.67;2.87;;;;;;;;;;4999081;28;20240;-61
2022/06/23 06:12:58;;;;;;;6.97;2.60;;;;;;;;;;4998747;28;20221;-61
2022/06/23 06:15:27;;;;;;;6.50;2.20;;;;;;;;;;4998981;28;20208;-61
2022/06/23 06:18:00;;;;;;;6.00;2.83;;;;;;;;;;5011920;28;20279;-61
2022/06/23 06:20:30;;;;;;;8.13;2.23;;;;;;;;;;4999068;28;20274;-60
2022/06/23 06:23:01;;;;;;;7.40;2.60;;;;;;;;;;5003839;28;20224;-60
2022/06/23 06:25:30;;;;;;;3.63;1.93;;;;;;;;;;5011911;28;20213;-61
2022/06/23 06:28:01;;;;;;;6.93;2.10;;;;;;;;;;4998526;28;20200;-61
2022/06/23 06:30:32;;;;;;;4.37;2.20;;;;;;;;;;4998642;28;20216;-61
2022/06/23 06:33:00;;;;;;;6.30;2.50;;;;;;;;;;4998287;28;20716;-61
2022/06/23 06:35:32;;;;;;;6.67;2.80;;;;;;;;;;5001351;28;20202;-61
2022/06/23 06:38:02;;;;;;;8.43;3.87;;;;;;;;;;4998457;28;20260;-60
2022/06/23 06:40:30;;;;;;;4.97;2.97;;;;;;;;;;4998267;28;20243;-61
2022/06/23 06:43:00;;;;;;;8.33;3.43;;;;;;;;;;4998388;28;20245;-61
2022/06/23 06:45:32;;;;;;;8.90;3.43;;;;;;;;;;4998351;28;20221;-58
2022/06/23 06:48:00;;;;;;;7.13;2.57;;;;;;;;;;4998267;28;20292;-60
2022/06/23 06:50:32;;;;;;;6.63;2.20;;;;;;;;;;5001344;28;20206;-61
2022/06/23 06:53:04;;;;;;;9.30;3.17;;;;;;;;;;5005233;28;20310;-61
2022/06/23 06:55:36;;;;;;;11.43;2.90;;;;;;;;;;5011244;28;20240;-61
2022/06/23 06:58:09;;;;;;;7.90;3.77;;;;;;;;;;5010944;28;20229;-61
2022/06/23 07:00:39;;;;;;;8.63;3.07;;;;;;;;;;4998667;28;20280;-60
2022/06/23 07:03:09;;;;;;;14.50;3.87;;;;;;;;;;5000935;28;20224;-60
2022/06/23 07:05:40;;;;;;;9.70;3.57;;;;;;;;;;5016639;28;20207;-60
2022/06/23 07:08:12;;;;;;;14.87;4.20;;;;;;;;;;5012680;28;20209;-60
2022/06/23 07:10:42;;;;;;;12.53;4.43;;;;;;;;;;5013942;28;20211;-60
2022/06/23 07:13:13;;;;;;;14.40;4.80;;;;;;;;;;5008437;28;20228;-60
2022/06/23 07:15:44;;;;;;;14.80;5.70;;;;;;;;;;5004763;28;20255;-60
2022/06/23 07:18:15;;;;;;;18.97;5.10;;;;;;;;;;4998336;28;20275;-60
2022/06/23 07:20:46;;;;;;;13.97;4.37;;;;;;;;;;4998077;28;20660;-60
2022/06/23 07:23:16;;;;;;;18.83;4.37;;;;;;;;;;5007860;28;20229;-60
2022/06/23 07:25:52;;;;;;;14.73;4.27;;;;;;;;;;5006214;28;20296;-60
2022/06/23 07:28:24;;;;;;;14.67;4.70;;;;;;;;;;4998030;28;20202;-61
2022/06/23 07:30:54;;;;;;;13.83;4.33;;;;;;;;;;4997868;28;20572;-61
2022/06/23 07:33:24;;;;;;;12.70;4.00;;;;;;;;;;4998028;28;20261;-61
2022/06/23 07:35:56;;;;;;;13.27;3.97;;;;;;;;;;5000453;28;20218;-60
2022/06/23 07:38:27;;;;;;;11.43;3.70;;;;;;;;;;4998072;28;20229;-60
2022/06/23 07:40:58;;;;;;;8.83;3.23;;;;;;;;;;5004686;28;20210;-60
2022/06/23 07:43:28;;;;;;;13.07;3.63;;;;;;;;;;5016428;28;20226;-60
2022/06/23 07:45:57;;;;;;;10.33;2.70;;;;;;;;;;4997861;28;20211;-61
2022/06/23 07:48:26;;;;;;;8.80;2.47;;;;;;;;;;4997568;28;20722;-61
2022/06/23 07:50:56;;;;;;;10.07;2.83;;;;;;;;;;4997528;28;20226;-61
2022/06/23 07:53:26;;;;;;;5.27;2.27;;;;;;;;;;4997772;28;20285;-61
2022/06/23 07:55:54;;;;;;;10.67;3.20;;;;;;;;;;4997564;28;20733;-60
2022/06/23 07:58:23;;;;;;;9.13;3.20;;;;;;;;;;4997190;28;20240;-60
2022/06/23 08:00:54;;;;;;;10.33;2.70;;;;;;;;;;4997518;28;20216;-61
2022/06/23 08:03:28;;;;;;;10.63;3.17;;;;;;;;;;4997601;28;20266;-61
2022/06/23 08:05:59;;;;;;;8.07;2.30;;;;;;;;;;4998052;28;20211;-61
2022/06/23 08:08:30;;;;;;;6.67;2.33;;;;;;;;;;4997434;28;20659;-61
2022/06/23 08:13:42;;;;;;;8.13;2.73;;;;;;;;;;4985588;28;20227;-60
2022/06/23 08:19:00;;;;;;;8.90;3.33;;;;;;;;;;5004198;28;20640;-61
2022/06/23 08:21:32;;;;;;;15.03;3.43;;;;;;;;;;5006273;28;20246;-60
2022/06/23 08:24:03;;;;;;;10.93;3.80;;;;;;;;;;5028852;28;20227;-61
2022/06/23 08:26:31;;;;;;;12.47;3.80;;;;;;;;;;5000869;28;20271;-61
2022/06/23 08:29:01;;;;;;;10.33;3.63;;;;;;;;;;5000907;28;20247;-61
2022/06/23 08:31:30;;;;;;;9.87;2.97;;;;;;;;;;5001228;28;20573;-61
2022/06/23 08:34:18;;;;;;;9.73;3.33;;;;;;;;;;5002201;28;20320;-60
2022/06/23 08:36:48;;;;;;;13.03;3.97;;;;;;;;;;5000788;28;20697;-61
2022/06/23 08:39:19;;;;;;;10.10;3.50;;;;;;;;;;5007855;28;20758;-61
2022/06/23 08:41:50;;;;;;;10.23;3.50;;;;;;;;;;5020176;28;20246;-61
2022/06/23 08:44:37;;;;;;;6.50;3.17;;;;;;;;;;5009762;28;20260;-61
2022/06/23 08:47:08;;;;;;;8.07;2.60;;;;;;;;;;5000758;28;20206;-61
2022/06/23 08:49:38;;;;;;;11.20;3.67;;;;;;;;;;5000560;28;20239;-61
2022/06/23 08:52:13;;;;;;;9.80;3.63;;;;;;;;;;5000207;28;20684;-61
2022/06/23 08:54:43;;;;;;;11.57;3.27;;;;;;;;;;5000583;28;20279;-60
2022/06/23 08:57:15;;;;;;;9.23;3.60;;;;;;;;;;5000167;28;20293;-61
2022/06/23 08:59:53;;;;;;;9.07;3.13;;;;;;;;;;5000316;28;20323;-60
2022/06/23 09:02:24;;;;;;;7.03;3.13;;;;;;;;;;5000373;28;20236;-61
2022/06/23 09:05:15;;;;;;;11.40;3.33;;;;;;;;;;5007350;28;20287;-60
2022/06/23 09:07:47;;;;;;;6.80;2.90;;;;;;;;;;5020050;28;20249;-61
2022/06/23 09:10:22;;;;;;;11.67;3.10;;;;;;;;;;5020040;28;20215;-60
2022/06/23 09:12:54;;;;;;;8.50;3.13;;;;;;;;;;5019402;28;20218;-60
2022/06/23 09:15:52;;;;;;;7.87;3.10;;;;;;;;;;5019657;28;20661;-60
2022/06/23 09:18:50;;;;;;;10.27;3.10;;;;;;;;;;4966666;28;20316;-61
2022/06/23 09:21:27;;;;;;;11.97;3.97;;;;;;;;;;4999339;28;20213;-59
2022/06/23 09:24:11;;;;;;;13.20;2.83;;;;;;;;;;5019519;28;20263;-61
2022/06/23 09:26:41;;;;;;;13.10;3.23;;;;;;;;;;4999619;28;20669;-60
2022/06/23 09:29:14;;;;;;;10.43;3.40;;;;;;;;;;5000053;28;20212;-61
2022/06/23 09:31:48;;;;;;;11.27;3.67;;;;;;;;;;4999619;28;20214;-60
2022/06/23 09:34:20;;;;;;;16.57;4.07;;;;;;;;;;5001166;28;20749;-60
2022/06/23 09:37:12;;;;;;;12.77;3.93;;;;;;;;;;4999952;28;20267;-60
2022/06/23 09:39:55;;;;;;;7.60;3.50;;;;;;;;;;4999460;28;20253;-61
2022/06/23 09:42:54;;;;;;;10.83;3.10;;;;;;;;;;5018569;28;20218;-61
2022/06/23 09:45:30;;;;;;;11.73;3.17;;;;;;;;;;5002453;28;20206;-61
2022/06/23 09:48:08;;;;;;;12.37;3.77;;;;;;;;;;4999756;28;20209;-61
2022/06/23 09:50:43;;;;;;;14.87;4.67;;;;;;;;;;4999543;28;20215;-61
2022/06/23 09:53:21;;;;;;;13.30;4.33;;;;;;;;;;4999336;28;20712;-61
2022/06/23 09:56:06;;;;;;;13.13;4.53;;;;;;;;;;4999375;28;20664;-61
2022/06/23 09:58:41;;;;;;;17.73;4.73;;;;;;;;;;4998669;28;20245;-61
2022/06/23 10:01:17;;;;;;;18.50;4.73;;;;;;;;;;4999258;28;20205;-61
2022/06/23 10:03:51;;;;;;;16.90;4.20;;;;;;;;;;4999318;28;20226;-60
2022/06/23 10:06:29;;;;;;;21.47;5.53;;;;;;;;;;4999145;28;20255;-61
2022/06/23 10:09:01;;;;;;;20.83;5.67;;;;;;;;;;4999370;28;20209;-60
2022/06/23 10:11:37;;;;;;;23.87;4.70;;;;;;;;;;4998842;28;20273;-61
2022/06/23 10:14:11;;;;;;;16.03;5.40;;;;;;;;;;4998870;28;20230;-61
2022/06/23 10:16:47;;;;;;;23.17;5.07;;;;;;;;;;5006499;28;20202;-61
2022/06/23 10:19:32;;;;;;;14.63;4.70;;;;;;;;;;5003119;28;20718;-61
2022/06/23 10:22:07;;;;;;;24.57;4.77;;;;;;;;;;4998846;28;20206;-61
2022/06/23 10:24:43;;;;;;;15.83;4.97;;;;;;;;;;5017818;28;20231;-61
2022/06/23 10:27:16;;;;;;;19.60;5.40;;;;;;;;;;4998671;28;20297;-61
2022/06/23 10:29:56;;;;;;;24.07;5.20;;;;;;;;;;4998675;28;20656;-61
2022/06/23 10:32:33;;;;;;;16.90;4.72;;;;;;;;;;4998701;28;20275;-61
2022/06/23 10:35:09;;;;;;;13.27;4.63;;;;;;;;;;4998778;28;20235;-60
2022/06/23 10:37:44;;;;;;;20.43;4.77;;;;;;;;;;5005567;28;20599;-61
2022/06/23 10:40:26;;;;;;;13.87;4.97;;;;;;;;;;5018055;28;20240;-61
2022/06/23 10:43:28;;;;;;;23.33;5.70;;;;;;;;;;5017652;28;20718;-61
2022/06/23 10:46:01;;;;;;;17.67;4.73;;;;;;;;;;5009473;28;20242;-61
2022/06/23 10:48:39;;;;;;;22.17;5.00;;;;;;;;;;4998549;28;20289;-61
2022/06/23 10:51:12;;;;;;;21.77;4.60;;;;;;;;;;4998405;28;20670;-61
2022/06/23 10:53:52;;;;;;;21.20;4.57;;;;;;;;;;4998363;28;20267;-61
2022/06/23 10:56:37;;;;;;;20.00;4.27;;;;;;;;;;4998265;28;20215;-61
2022/06/23 10:59:13;;;;;;;19.77;4.30;;;;;;;;;;4998447;28;20228;-61
2022/06/23 11:01:59;;;;;;;18.13;4.23;;;;;;;;;;4998686;28;20208;-61
2022/06/23 11:04:38;;;;;;;15.87;4.37;;;;;;;;;;4998285;28;20260;-61
2022/06/23 11:07:18;;;;;;;25.03;4.83;;;;;;;;;;4998618;28;20249;-61
2022/06/23 11:09:54;;;;;;;16.43;4.23;;;;;;;;;;4998255;28;20246;-61
2022/06/23 11:12:29;;;;;;;21.83;4.47;;;;;;;;;;4997897;28;20274;-61
2022/06/23 11:15:04;;;;;;;15.27;4.07;;;;;;;;;;5005487;28;20268;-61
2022/06/23 11:17:38;;;;;;;19.33;4.18;;;;;;;;;;5016369;28;20206;-61
2022/06/23 11:20:12;;;;;;;12.30;4.70;;;;;;;;;;4998276;28;20266;-61
2022/06/23 11:22:45;;;;;;;18.60;3.87;;;;;;;;;;4998346;28;20204;-61
2022/06/23 11:25:31;;;;;;;17.53;3.87;;;;;;;;;;5015502;28;20208;-61
2022/06/23 11:28:05;;;;;;;19.90;3.70;;;;;;;;;;5005009;28;20250;-61
2022/06/23 11:30:39;;;;;;;16.00;5.10;;;;;;;;;;5017799;28;20233;-61
2022/06/23 11:33:21;;;;;;;16.83;4.17;;;;;;;;;;5017877;28;20319;-61
2022/06/23 11:36:00;;;;;;;13.18;3.78;;;;;;;;;;5001220;28;20219;-61
2022/06/23 11:38:49;;;;;;;19.63;4.73;;;;;;;;;;4997822;28;20216;-61
2022/06/23 11:41:28;;;;;;;17.10;4.73;;;;;;;;;;4994489;28;20236;-61
2022/06/23 11:44:02;;;;;;;20.73;4.50;;;;;;;;;;5000043;28;20316;-61
2022/06/23 11:46:34;;;;;;;17.10;3.93;;;;;;;;;;4998095;28;20210;-61
2022/06/23 11:49:12;;;;;;;10.00;4.10;;;;;;;;;;5005098;28;20206;-61
2022/06/23 11:52:01;;;;;;;17.93;4.33;;;;;;;;;;5017587;28;20242;-61
2022/06/23 11:54:45;;;;;;;19.13;4.87;;;;;;;;;;5014129;28;20309;-61
2022/06/23 11:57:21;;;;;;;16.30;4.23;;;;;;;;;;5019668;28;20616;-61
2022/06/23 11:59:54;;;;;;;15.03;4.67;;;;;;;;;;5021108;28;20235;-61
2022/06/23 12:02:46;;;;;;;20.27;5.03;;;;;;;;;;5020954;28;20211;-61
2022/06/23 12:05:22;;;;;;;17.27;4.23;;;;;;;;;;5021366;28;20210;-61
2022/06/23 12:08:03;;;;;;;19.23;4.73;;;;;;;;;;5021156;28;20210;-60
2022/06/23 12:10:33;;;;;;;14.93;4.70;;;;;;;;;;5021035;28;20207;-60
2022/06/23 12:13:02;;;;;;;18.33;4.47;;;;;;;;;;5020482;28;20231;-60
2022/06/23 12:15:33;;;;;;;18.13;5.03;;;;;;;;;;5021036;28;20215;-60
2022/06/23 12:18:03;;;;;;;14.70;3.93;;;;;;;;;;5015716;28;20246;-60
2022/06/23 12:20:36;;;;;;;15.20;4.33;;;;;;;;;;5000977;28;20669;-60
2022/06/23 12:23:07;;;;;;;20.80;4.90;;;;;;;;;;5011517;28;20284;-60
2022/06/23 12:25:39;;;;;;;15.13;4.67;;;;;;;;;;5011611;28;20242;-60
2022/06/23 12:28:19;;;;;;;12.90;4.10;;;;;;;;;;5000997;28;20208;-60
2022/06/23 12:30:52;;;;;;;15.03;4.33;;;;;;;;;;5001079;28;20205;-61
2022/06/23 12:33:23;;;;;;;14.57;4.03;;;;;;;;;;5000828;28;20238;-60
2022/06/23 12:35:55;;;;;;;15.50;3.97;;;;;;;;;;5002540;28;20257;-60
2022/06/23 12:38:26;;;;;;;14.67;4.73;;;;;;;;;;5000855;28;20213;-60
2022/06/23 12:40:55;;;;;;;13.50;3.60;;;;;;;;;;5007662;28;20695;-60
2022/06/23 12:43:40;;;;;;;5.60;2.30;;;;;;;;;;5018935;28;20259;-60
2022/06/23 12:46:12;;;;;;;12.63;2.60;;;;;;;;;;5000708;28;20249;-60
2022/06/23 12:48:52;;;;;;;9.53;2.70;;;;;;;;;;5000488;28;20623;-60
2022/06/23 12:51:26;;;;;;;9.77;2.93;;;;;;;;;;5000904;28;20265;-60
2022/06/23 12:54:24;;;;;;;12.70;2.90;;;;;;;;;;5007750;28;20231;-60
2022/06/23 12:57:06;;;;;;;11.53;3.83;;;;;;;;;;4978242;28;20243;-60
2022/06/23 12:59:38;;;;;;;9.30;3.13;;;;;;;;;;5014788;28;20238;-61
2022/06/23 13:02:11;;;;;;;15.13;4.13;;;;;;;;;;5020054;28;20234;-60
2022/06/23 13:04:42;;;;;;;15.03;4.43;;;;;;;;;;5020041;28;20234;-60
2022/06/23 13:07:15;;;;;;;16.90;5.80;;;;;;;;;;5019801;28;20238;-60
2022/06/23 13:09:46;;;;;;;13.20;3.97;;;;;;;;;;5019984;28;20279;-60
2022/06/23 13:12:37;;;;;;;12.53;4.20;;;;;;;;;;5019246;28;20289;-60
2022/06/23 13:15:08;;;;;;;9.97;4.23;;;;;;;;;;5020124;28;20214;-60
2022/06/23 13:17:41;;;;;;;13.37;3.50;;;;;;;;;;5017830;28;20234;-60
2022/06/23 13:20:13;;;;;;;20.07;5.70;;;;;;;;;;5000339;28;20258;-60
2022/06/23 13:22:46;;;;;;;9.10;3.50;;;;;;;;;;5000387;28;20557;-60
2022/06/23 13:25:17;;;;;;;11.17;3.47;;;;;;;;;;5016643;28;20582;-61
2022/06/23 13:27:49;;;;;;;14.83;3.80;;;;;;;;;;4999635;28;20254;-60
2022/06/23 13:30:41;;;;;;;11.50;3.57;;;;;;;;;;4999905;28;20293;-60
2022/06/23 13:33:11;;;;;;;9.90;3.20;;;;;;;;;;4999882;28;20288;-60
2022/06/23 13:35:41;;;;;;;10.47;3.63;;;;;;;;;;5000600;28;20619;-60
2022/06/23 13:38:17;;;;;;;9.70;3.30;;;;;;;;;;4999947;28;20206;-60
2022/06/23 13:40:48;;;;;;;64.53;13.83;;;;;;;;;;4999600;28;20257;-60
2022/06/23 13:43:21;;;;;;;59.33;11.70;;;;;;;;;;5001407;28;20687;-60
2022/06/23 13:45:53;;;;;;;20.23;6.27;;;;;;;;;;5012043;28;20630;-60
2022/06/23 13:48:28;;;;;;;17.67;5.30;;;;;;;;;;4999733;28;20218;-60
2022/06/23 13:51:00;;;;;;;9.03;3.00;;;;;;;;;;4999618;28;20201;-60
2022/06/23 13:53:33;;;;;;;6.47;2.60;;;;;;;;;;4999419;28;20232;-60
2022/06/23 13:56:06;;;;;;;6.10;2.70;;;;;;;;;;4999554;28;20243;-60
2022/06/23 13:58:39;;;;;;;9.80;2.53;;;;;;;;;;4998983;28;20237;-60
2022/06/23 14:01:11;;;;;;;5.70;2.20;;;;;;;;;;4999561;28;20231;-60
2022/06/23 14:03:43;;;;;;;18.90;4.63;;;;;;;;;;5006173;28;20234;-60
2022/06/23 14:06:14;;;;;;;8.47;3.00;;;;;;;;;;5018952;28;20212;-60
2022/06/23 14:08:45;;;;;;;6.17;2.60;;;;;;;;;;5018869;28;20215;-60
2022/06/23 14:11:23;;;;;;;9.83;2.97;;;;;;;;;;5018813;28;20210;-60
2022/06/23 14:13:54;;;;;;;8.83;3.17;;;;;;;;;;5018969;28;20282;-60
2022/06/23 14:16:25;;;;;;;8.27;3.60;;;;;;;;;;5018467;28;20242;-60
2022/06/23 14:18:56;;;;;;;7.27;3.17;;;;;;;;;;5005662;28;20207;-60
2022/06/23 14:21:28;;;;;;;8.93;2.30;;;;;;;;;;4999027;28;20339;-60
2022/06/23 14:24:05;;;;;;;5.80;3.00;;;;;;;;;;5018731;28;20246;-60
2022/06/23 14:26:35;;;;;;;7.87;3.03;;;;;;;;;;4998393;28;20237;-60
2022/06/23 14:29:05;;;;;;;10.10;2.87;;;;;;;;;;4998857;28;20226;-60
2022/06/23 14:31:34;;;;;;;10.20;3.00;;;;;;;;;;4999080;28;20206;-60
2022/06/23 14:34:06;;;;;;;6.33;2.60;;;;;;;;;;4999918;28;20227;-60
2022/06/23 14:36:36;;;;;;;4.90;2.63;;;;;;;;;;4998478;28;20563;-60
2022/06/23 14:39:12;;;;;;;8.20;2.63;;;;;;;;;;4998523;28;20666;-60
2022/06/23 14:41:48;;;;;;;12.27;3.63;;;;;;;;;;4997943;28;20729;-60
2022/06/23 14:44:23;;;;;;;10.70;2.87;;;;;;;;;;5001201;28;20255;-60
2022/06/23 14:46:59;;;;;;;8.23;2.73;;;;;;;;;;4998340;28;20248;-60
2022/06/23 14:49:51;;;;;;;6.90;2.60;;;;;;;;;;4999028;28;20216;-60
2022/06/23 14:52:26;;;;;;;4.70;2.40;;;;;;;;;;4995482;28;20675;-60
2022/06/23 14:55:01;;;;;;;6.40;2.47;;;;;;;;;;5017843;28;20224;-61
2022/06/23 14:57:44;;;;;;;5.07;2.40;;;;;;;;;;5017682;28;20235;-60
2022/06/23 15:00:14;;;;;;;7.47;2.37;;;;;;;;;;5017978;28;20235;-60
2022/06/23 15:02:45;;;;;;;5.33;2.83;;;;;;;;;;5017777;28;20601;-60
2022/06/23 15:05:17;;;;;;;5.00;2.00;;;;;;;;;;5017762;28;20263;-60
2022/06/23 15:07:48;;;;;;;5.33;2.70;;;;;;;;;;5017757;28;20241;-60
2022/06/23 15:10:21;;;;;;;5.10;1.73;;;;;;;;;;5018037;28;20211;-60
2022/06/23 15:12:52;;;;;;;7.73;2.33;;;;;;;;;;5017324;28;20739;-60
2022/06/23 15:15:27;;;;;;;10.97;2.50;;;;;;;;;;5017788;28;20580;-60
2022/06/23 15:17:57;;;;;;;4.03;2.30;;;;;;;;;;5013310;28;20243;-60
2022/06/23 15:20:30;;;;;;;9.37;2.47;;;;;;;;;;4998377;28;20245;-61
2022/06/23 15:23:12;;;;;;;7.67;2.50;;;;;;;;;;5003070;28;20246;-60